Time;durP1;ratioP1;P1;durP2;ratioP2;P2;SDS_P1;SDS_P2;PMS_P1;PMS_P2;Temp;Humidity;BMP_temperature;BMP_pressure;BME280_temperature;BME280_humidity;BME280_pressure;Samples;Min_cycle;Max_cycle;Signal;HPM_P1;HPM_P2
2024/02/29 00:02:08;;;;;;;32.97;20.45;;;7.90;99.90;;;;;;5113335;27;20047;-63
2024/02/29 00:04:34;;;;;;;29.63;18.92;;;7.90;99.90;;;;;;5108050;27;20504;-62
2024/02/29 00:07:01;;;;;;;29.58;20.30;;;7.90;99.90;;;;;;5110305;27;20869;-62
2024/02/29 00:09:26;;;;;;;25.80;19.88;;;7.90;99.90;;;;;;5117415;27;20048;-62
2024/02/29 00:11:53;;;;;;;24.10;19.02;;;7.90;99.90;;;;;;5114473;28;20045;-62
2024/02/29 00:14:19;;;;;;;26.65;18.70;;;7.90;99.90;;;;;;5119784;27;20595;-62
2024/02/29 00:16:45;;;;;;;27.65;18.95;;;7.80;99.90;;;;;;5119567;27;20043;-63
2024/02/29 00:19:14;;;;;;;28.90;18.83;;;7.80;99.90;;;;;;5112243;28;20123;-62
2024/02/29 00:21:41;;;;;;;27.30;19.40;;;7.80;99.90;;;;;;5120141;28;20043;-63
2024/02/29 00:24:07;;;;;;;30.25;20.02;;;7.80;99.90;;;;;;5116652;27;20059;-62
2024/02/29 00:26:33;;;;;;;27.85;20.50;;;7.80;99.90;;;;;;5122174;27;20401;-62
2024/02/29 00:29:01;;;;;;;26.20;19.50;;;7.70;99.90;;;;;;5116266;27;20108;-62
2024/02/29 00:31:27;;;;;;;29.17;20.13;;;7.70;99.90;;;;;;5121058;27;20042;-62
2024/02/29 00:33:53;;;;;;;29.52;19.80;;;7.70;99.90;;;;;;5118601;27;20035;-62
2024/02/29 00:36:19;;;;;;;27.70;19.95;;;7.60;99.90;;;;;;5122506;27;20409;-63
2024/02/29 00:38:45;;;;;;;31.38;20.38;;;7.60;99.90;;;;;;5113319;28;20027;-63
2024/02/29 00:41:14;;;;;;;26.25;18.17;;;7.60;99.90;;;;;;5107913;27;20050;-62
2024/02/29 00:43:41;;;;;;;26.75;19.45;;;7.50;99.90;;;;;;5120812;28;20027;-63
2024/02/29 00:46:07;;;;;;;29.40;20.98;;;7.50;99.90;;;;;;5122764;27;20091;-63
2024/02/29 00:48:33;;;;;;;28.85;19.20;;;7.50;99.90;;;;;;5106616;27;20035;-62
2024/02/29 00:50:58;;;;;;;30.40;19.38;;;7.40;99.90;;;;;;5126330;27;20115;-62
2024/02/29 00:53:24;;;;;;;27.30;18.58;;;7.30;99.90;;;;;;5121487;27;20766;-62
2024/02/29 00:55:50;;;;;;;28.95;18.67;;;7.30;99.90;;;;;;5122777;27;20128;-62
2024/02/29 00:58:16;;;;;;;28.85;19.55;;;7.30;99.90;;;;;;5121973;27;20031;-59
2024/02/29 01:00:41;;;;;;;27.20;17.83;;;7.30;99.90;;;;;;5122500;27;20043;-63
2024/02/29 01:03:07;;;;;;;29.73;19.77;;;7.30;99.90;;;;;;5122385;27;20074;-63
2024/02/29 01:05:33;;;;;;;27.63;17.83;;;7.30;99.90;;;;;;5122349;27;20172;-62
2024/02/29 01:07:59;;;;;;;26.23;18.58;;;7.30;99.90;;;;;;5107550;27;20051;-62
2024/02/29 01:10:25;;;;;;;31.75;17.73;;;7.30;99.90;;;;;;5122401;27;20107;-62
2024/02/29 01:12:50;;;;;;;27.25;17.83;;;7.30;99.90;;;;;;5123609;27;20039;-63
2024/02/29 01:15:19;;;;;;;25.20;17.27;;;7.30;99.90;;;;;;5110721;27;20055;-62
2024/02/29 01:17:45;;;;;;;27.38;17.92;;;7.30;99.90;;;;;;5118496;27;20122;-62
2024/02/29 01:20:11;;;;;;;24.67;17.52;;;7.30;99.90;;;;;;5117686;27;20039;-62
2024/02/29 01:22:37;;;;;;;23.10;17.35;;;7.30;99.90;;;;;;5124785;27;20120;-63
2024/02/29 01:25:03;;;;;;;26.95;16.75;;;7.30;99.90;;;;;;5120171;27;20091;-62
2024/02/29 01:27:29;;;;;;;25.98;17.75;;;7.30;99.90;;;;;;5113625;27;20122;-62
2024/02/29 01:29:55;;;;;;;25.10;17.30;;;7.30;99.90;;;;;;5115976;27;20036;-62
2024/02/29 01:32:21;;;;;;;24.95;16.20;;;7.30;99.90;;;;;;5120342;27;20035;-62
2024/02/29 01:34:47;;;;;;;22.63;16.33;;;7.30;99.90;;;;;;5127963;27;20484;-62
2024/02/29 01:37:14;;;;;;;23.13;16.73;;;7.40;99.90;;;;;;5118113;27;20452;-62
2024/02/29 01:39:41;;;;;;;24.45;17.33;;;7.40;99.90;;;;;;5120593;27;20023;-62
2024/02/29 01:42:07;;;;;;;23.15;15.80;;;7.40;99.90;;;;;;5112823;27;20127;-62
2024/02/29 01:44:36;;;;;;;24.13;16.65;;;7.40;99.90;;;;;;5126066;27;20047;-63
2024/02/29 01:47:01;;;;;;;21.77;14.98;;;7.40;99.90;;;;;;5115217;27;20054;-62
2024/02/29 01:49:28;;;;;;;36.33;16.25;;;7.40;99.90;;;;;;5116892;27;20039;-62
2024/02/29 01:51:55;;;;;;;22.30;16.90;;;7.40;99.90;;;;;;5115691;27;20523;-62
2024/02/29 01:54:20;;;;;;;24.10;16.63;;;7.40;99.90;;;;;;5117572;27;20077;-62
2024/02/29 01:56:46;;;;;;;24.63;16.65;;;7.40;99.90;;;;;;5115547;27;20131;-63
2024/02/29 01:59:13;;;;;;;21.77;16.30;;;7.40;99.90;;;;;;5113027;27;20166;-62
2024/02/29 02:01:39;;;;;;;21.73;15.27;;;7.40;99.90;;;;;;5111356;27;20043;-60
2024/02/29 02:04:05;;;;;;;25.95;16.92;;;7.40;99.90;;;;;;5118897;27;20036;-63
2024/02/29 02:06:31;;;;;;;25.80;16.00;;;7.40;99.90;;;;;;5124695;27;20035;-63
2024/02/29 02:08:56;;;;;;;22.50;15.57;;;7.40;99.90;;;;;;5118830;27;20067;-62
2024/02/29 02:11:22;;;;;;;22.73;15.30;;;7.40;99.90;;;;;;5124704;27;20549;-62
2024/02/29 02:13:48;;;;;;;19.88;14.75;;;7.40;99.90;;;;;;5130152;27;20035;-63
2024/02/29 02:16:14;;;;;;;23.58;16.05;;;7.40;99.90;;;;;;5124195;27;20419;-62
2024/02/29 02:18:40;;;;;;;26.83;16.15;;;7.40;99.90;;;;;;5121990;27;20035;-62
2024/02/29 02:21:06;;;;;;;25.45;16.52;;;7.40;99.90;;;;;;5122910;27;20449;-63
2024/02/29 02:23:32;;;;;;;23.75;16.20;;;7.40;99.90;;;;;;5118545;27;20461;-61
2024/02/29 02:25:59;;;;;;;20.52;15.07;;;7.40;99.90;;;;;;5115866;27;20031;-59
2024/02/29 02:28:25;;;;;;;23.15;15.57;;;7.40;99.90;;;;;;5125018;27;20623;-61
2024/02/29 02:30:52;;;;;;;21.10;15.13;;;7.30;99.90;;;;;;5122461;27;20822;-60
2024/02/29 02:33:18;;;;;;;24.30;16.83;;;7.30;99.90;;;;;;5116732;27;20133;-61
2024/02/29 02:35:45;;;;;;;24.55;17.33;;;7.40;99.90;;;;;;5127921;27;20043;-61
2024/02/29 02:38:11;;;;;;;25.48;16.40;;;7.30;99.90;;;;;;5113831;27;20109;-61
2024/02/29 02:40:37;;;;;;;26.10;17.30;;;7.30;99.90;;;;;;5111995;27;20046;-62
2024/02/29 02:43:03;;;;;;;23.02;16.77;;;7.30;99.90;;;;;;5120673;27;20039;-61
2024/02/29 02:45:28;;;;;;;22.45;15.60;;;7.30;99.90;;;;;;5123798;27;20382;-61
2024/02/29 02:47:55;;;;;;;24.80;17.05;;;7.30;99.90;;;;;;5124924;27;20110;-64
2024/02/29 02:50:21;;;;;;;24.83;16.67;;;7.30;99.90;;;;;;5117032;27;20062;-61
2024/02/29 02:52:46;;;;;;;22.42;16.38;;;7.30;99.90;;;;;;5121821;27;20172;-61
2024/02/29 02:55:12;;;;;;;24.77;16.48;;;7.30;99.90;;;;;;5123142;27;20075;-61
2024/02/29 02:57:38;;;;;;;26.77;16.58;;;7.30;99.90;;;;;;5110384;27;20031;-61
2024/02/29 03:00:05;;;;;;;26.27;17.20;;;7.30;99.90;;;;;;5122523;27;20085;-64
2024/02/29 03:02:31;;;;;;;23.30;16.15;;;7.30;99.90;;;;;;5122910;27;20057;-60
2024/02/29 03:04:57;;;;;;;25.13;16.58;;;7.30;99.90;;;;;;5119855;27;20530;-60
2024/02/29 03:07:23;;;;;;;24.80;15.98;;;7.30;99.90;;;;;;5117319;27;20062;-61
2024/02/29 03:09:48;;;;;;;22.25;15.40;;;7.30;99.90;;;;;;5123960;27;20353;-60
2024/02/29 03:12:15;;;;;;;22.30;15.10;;;7.30;99.90;;;;;;5122314;27;20329;-63
2024/02/29 03:14:41;;;;;;;25.27;17.42;;;7.30;99.90;;;;;;5132723;27;20047;-60
2024/02/29 03:17:07;;;;;;;22.73;15.60;;;7.30;99.90;;;;;;5115528;27;20100;-61
2024/02/29 03:19:32;;;;;;;22.63;15.82;;;7.30;99.90;;;;;;5112752;27;20040;-62
2024/02/29 03:21:58;;;;;;;25.25;16.27;;;7.30;99.90;;;;;;5120245;27;20046;-61
2024/02/29 03:24:24;;;;;;;28.08;16.08;;;7.30;99.90;;;;;;5106512;27;20472;-61
2024/02/29 03:26:49;;;;;;;24.25;16.20;;;7.30;99.90;;;;;;5103891;27;20377;-62
2024/02/29 03:29:15;;;;;;;27.23;17.67;;;7.20;99.90;;;;;;5111463;27;20039;-62
2024/02/29 03:31:45;;;;;;;26.17;16.75;;;7.20;99.90;;;;;;5111181;27;20035;-61
2024/02/29 03:34:11;;;;;;;27.02;16.35;;;7.20;99.90;;;;;;5118935;27;20039;-61
2024/02/29 03:36:37;;;;;;;27.50;16.13;;;7.20;99.90;;;;;;5123306;27;20040;-61
2024/02/29 03:39:06;;;;;;;27.42;16.30;;;7.10;99.90;;;;;;5105968;27;20055;-61
2024/02/29 03:41:34;;;;;;;28.33;16.27;;;7.10;99.90;;;;;;5121589;27;20054;-61
2024/02/29 03:44:00;;;;;;;24.90;15.85;;;7.10;99.90;;;;;;5119260;27;20035;-61
2024/02/29 03:46:26;;;;;;;25.08;15.82;;;7.10;99.90;;;;;;5119195;27;20492;-61
2024/02/29 03:48:52;;;;;;;26.60;15.38;;;7.10;99.90;;;;;;5113562;27;20169;-61
2024/02/29 03:51:18;;;;;;;24.50;14.70;;;7.10;99.90;;;;;;5116219;27;20266;-61
2024/02/29 03:53:44;;;;;;;23.65;14.98;;;7.10;99.90;;;;;;5123601;27;20043;-60
2024/02/29 03:56:10;;;;;;;21.67;14.50;;;7.10;99.90;;;;;;5115879;27;20126;-63
2024/02/29 03:58:36;;;;;;;24.80;14.88;;;7.10;99.90;;;;;;5116888;27;20036;-61
2024/02/29 04:01:05;;;;;;;18.40;13.05;;;7.10;99.90;;;;;;5118262;27;20046;-61
2024/02/29 04:03:31;;;;;;;22.33;14.55;;;7.10;99.90;;;;;;5110222;27;20063;-61
2024/02/29 04:05:57;;;;;;;21.15;14.50;;;7.10;99.90;;;;;;5115318;27;20372;-62
2024/02/29 04:08:23;;;;;;;23.95;14.90;;;7.10;99.90;;;;;;5119384;27;20489;-61
2024/02/29 04:10:50;;;;;;;22.52;13.65;;;7.10;99.90;;;;;;5119665;27;20486;-62
2024/02/29 04:13:17;;;;;;;28.52;15.82;;;7.10;99.90;;;;;;5123188;27;20505;-61
2024/02/29 04:15:43;;;;;;;20.70;13.23;;;7.10;99.90;;;;;;5111039;28;20200;-62
2024/02/29 04:18:09;;;;;;;21.90;12.80;;;7.10;99.90;;;;;;5117299;27;20362;-61
2024/02/29 04:20:35;;;;;;;18.40;12.32;;;7.10;99.90;;;;;;5122052;27;20039;-61
2024/02/29 04:23:00;;;;;;;21.85;14.73;;;7.10;99.90;;;;;;5123237;27;20497;-62
2024/02/29 04:25:26;;;;;;;24.67;13.82;;;7.00;99.90;;;;;;5120939;27;20361;-62
2024/02/29 04:27:52;;;;;;;21.55;13.63;;;7.10;99.90;;;;;;5109338;28;20474;-61
2024/02/29 04:30:18;;;;;;;22.23;13.07;;;7.10;99.90;;;;;;5121865;27;20177;-61
2024/02/29 04:32:44;;;;;;;28.15;14.40;;;7.10;99.90;;;;;;5110726;27;20401;-62
2024/02/29 04:35:10;;;;;;;21.55;13.13;;;7.10;99.90;;;;;;5124256;27;20455;-62
2024/02/29 04:37:37;;;;;;;24.83;15.55;;;7.10;99.90;;;;;;5124861;27;20050;-61
2024/02/29 04:40:03;;;;;;;19.55;13.35;;;7.10;99.90;;;;;;5114641;27;20160;-61
2024/02/29 04:42:30;;;;;;;22.98;14.05;;;7.00;99.90;;;;;;5114444;27;20023;-62
2024/02/29 04:44:56;;;;;;;22.30;13.65;;;7.10;99.90;;;;;;5117804;27;20800;-60
2024/02/29 04:47:22;;;;;;;24.08;14.90;;;7.00;99.90;;;;;;5115930;27;20043;-61
2024/02/29 04:49:48;;;;;;;23.88;15.50;;;7.00;99.90;;;;;;5116694;28;20646;-61
2024/02/29 04:52:14;;;;;;;25.58;14.60;;;7.00;99.90;;;;;;5119875;27;20039;-62
2024/02/29 04:54:41;;;;;;;25.23;15.55;;;7.00;99.90;;;;;;5117735;27;20043;-62
2024/02/29 04:57:07;;;;;;;23.42;13.40;;;7.00;99.90;;;;;;5124554;27;20524;-61
2024/02/29 04:59:32;;;;;;;22.98;13.75;;;7.10;99.90;;;;;;5116776;27;20039;-62
2024/02/29 05:01:59;;;;;;;21.95;13.65;;;7.10;99.90;;;;;;5123743;27;20078;-61
2024/02/29 05:04:24;;;;;;;23.67;14.07;;;7.20;99.90;;;;;;5119187;27;20103;-62
2024/02/29 05:06:50;;;;;;;25.67;15.45;;;7.40;99.90;;;;;;5121170;27;20039;-61
2024/02/29 05:09:16;;;;;;;21.88;15.32;;;7.00;99.90;;;;;;5122468;27;20487;-62
2024/02/29 05:11:42;;;;;;;25.35;15.02;;;7.10;99.90;;;;;;5124695;27;20456;-62
2024/02/29 05:14:09;;;;;;;22.30;14.23;;;7.00;99.90;;;;;;5127108;27;20465;-61
2024/02/29 05:16:34;;;;;;;26.15;15.38;;;7.00;99.90;;;;;;5123557;27;20076;-62
2024/02/29 05:19:00;;;;;;;28.77;15.93;;;7.00;99.90;;;;;;5119516;27;20038;-63
2024/02/29 05:21:26;;;;;;;26.35;14.90;;;6.90;99.90;;;;;;5120443;27;20348;-61
2024/02/29 05:23:52;;;;;;;23.67;14.70;;;6.90;99.90;;;;;;5114581;27;20039;-62
2024/02/29 05:26:18;;;;;;;25.38;15.82;;;7.00;99.90;;;;;;5117945;27;20043;-61
2024/02/29 05:28:45;;;;;;;26.73;15.45;;;7.00;99.90;;;;;;5118617;27;20039;-61
2024/02/29 05:31:11;;;;;;;25.50;14.63;;;7.00;99.90;;;;;;5125676;27;20040;-61
2024/02/29 05:33:39;;;;;;;23.95;13.63;;;7.00;99.90;;;;;;5123837;27;20039;-61
2024/02/29 05:36:06;;;;;;;30.10;14.38;;;6.90;99.90;;;;;;5131271;27;20050;-61
2024/02/29 05:38:31;;;;;;;20.75;13.95;;;7.00;99.90;;;;;;5118628;27;20035;-61
2024/02/29 05:40:57;;;;;;;25.05;14.75;;;7.00;99.90;;;;;;5117984;27;20038;-61
2024/02/29 05:43:25;;;;;;;27.58;14.77;;;7.00;99.90;;;;;;5113791;27;20040;-61
2024/02/29 05:45:51;;;;;;;25.25;15.13;;;7.00;99.90;;;;;;5121620;27;20077;-61
2024/02/29 05:48:17;;;;;;;25.00;14.18;;;7.00;99.90;;;;;;5121629;27;20527;-61
2024/02/29 05:50:43;;;;;;;26.00;14.13;;;7.00;99.90;;;;;;5119698;27;20039;-61
2024/02/29 05:53:10;;;;;;;25.80;14.07;;;7.00;99.90;;;;;;5131241;27;20043;-61
2024/02/29 05:55:36;;;;;;;23.38;13.32;;;7.00;99.90;;;;;;5124331;27;20509;-62
2024/02/29 05:58:02;;;;;;;24.42;13.75;;;7.00;99.90;;;;;;5128034;27;20592;-61
2024/02/29 06:00:28;;;;;;;22.23;13.18;;;7.00;99.90;;;;;;5126175;27;20043;-61
2024/02/29 06:02:53;;;;;;;25.83;13.68;;;7.00;99.90;;;;;;5126660;27;20577;-61
2024/02/29 06:05:20;;;;;;;22.33;13.38;;;7.00;99.90;;;;;;5131620;27;20046;-61
2024/02/29 06:07:45;;;;;;;23.42;13.10;;;7.00;99.90;;;;;;5132256;27;20035;-61
2024/02/29 06:10:11;;;;;;;24.50;13.38;;;7.00;99.90;;;;;;5127159;27;20037;-62
2024/02/29 06:12:37;;;;;;;18.83;12.93;;;7.00;99.90;;;;;;5130252;27;20164;-62
2024/02/29 06:15:04;;;;;;;21.58;13.27;;;7.10;99.90;;;;;;5123936;27;20031;-61
2024/02/29 06:17:30;;;;;;;21.65;13.00;;;7.10;99.90;;;;;;5128092;27;20156;-60
2024/02/29 06:19:56;;;;;;;23.73;13.18;;;7.00;99.90;;;;;;5129997;27;20150;-61
2024/02/29 06:22:22;;;;;;;25.45;12.90;;;7.10;99.90;;;;;;5125006;27;20260;-61
2024/02/29 06:24:51;;;;;;;24.95;13.73;;;7.00;99.90;;;;;;5130690;27;20536;-62
2024/02/29 06:27:17;;;;;;;20.92;12.45;;;7.00;99.90;;;;;;5130585;27;20081;-62
2024/02/29 06:29:44;;;;;;;32.92;14.02;;;6.90;99.90;;;;;;5129247;27;20066;-61
2024/02/29 06:32:09;;;;;;;20.50;12.68;;;6.90;99.90;;;;;;5131509;27;20045;-61
2024/02/29 06:34:35;;;;;;;22.42;13.48;;;6.90;99.90;;;;;;5129122;27;20517;-62
2024/02/29 06:37:02;;;;;;;22.35;13.38;;;7.00;99.90;;;;;;5131478;27;20043;-61
2024/02/29 06:39:28;;;;;;;24.95;13.45;;;6.90;99.90;;;;;;5129902;27;20072;-62
2024/02/29 06:41:53;;;;;;;25.25;13.85;;;7.00;99.90;;;;;;5123090;27;20383;-61
2024/02/29 06:44:19;;;;;;;22.75;13.63;;;7.00;99.90;;;;;;5128882;27;20330;-61
2024/02/29 06:46:45;;;;;;;25.95;14.15;;;6.90;99.90;;;;;;5129425;27;20026;-62
2024/02/29 06:49:10;;;;;;;22.00;13.50;;;6.90;99.90;;;;;;5130328;27;20038;-62
2024/02/29 06:51:36;;;;;;;22.63;14.55;;;6.90;99.90;;;;;;5131193;27;20066;-62
2024/02/29 06:54:05;;;;;;;24.73;14.20;;;6.80;99.90;;;;;;5130730;27;20053;-61
2024/02/29 06:56:31;;;;;;;21.05;13.35;;;6.90;99.90;;;;;;5126702;27;20130;-62
2024/02/29 06:58:57;;;;;;;24.65;13.63;;;6.80;99.90;;;;;;5128235;27;20073;-62
2024/02/29 07:01:23;;;;;;;25.13;13.40;;;6.90;99.90;;;;;;5131182;27;20090;-62
2024/02/29 07:03:49;;;;;;;27.92;14.35;;;6.90;99.90;;;;;;5128390;27;20503;-61
2024/02/29 07:06:15;;;;;;;25.08;14.40;;;6.90;99.90;;;;;;5129127;27;20443;-61
2024/02/29 07:08:41;;;;;;;27.58;14.98;;;7.20;99.90;;;;;;5126744;27;20035;-61
2024/02/29 07:11:11;;;;;;;26.48;14.82;;;7.00;99.90;;;;;;5129034;27;20095;-62
2024/02/29 07:13:37;;;;;;;27.55;14.60;;;7.00;99.90;;;;;;5128104;27;20043;-62
2024/02/29 07:16:03;;;;;;;27.15;14.98;;;6.90;99.90;;;;;;5127670;27;20050;-62
2024/02/29 07:18:29;;;;;;;24.80;13.98;;;6.90;99.90;;;;;;5127740;27;20130;-62
2024/02/29 07:20:55;;;;;;;21.38;14.20;;;7.00;99.90;;;;;;5127419;27;20169;-61
2024/02/29 07:23:22;;;;;;;24.17;14.73;;;7.00;99.90;;;;;;5126114;27;20348;-61
2024/02/29 07:25:48;;;;;;;26.38;14.32;;;7.00;99.90;;;;;;5128473;27;20058;-62
2024/02/29 07:28:14;;;;;;;24.88;14.27;;;7.00;99.90;;;;;;5124732;27;20035;-61
2024/02/29 07:30:40;;;;;;;22.88;14.27;;;7.00;99.90;;;;;;5130272;27;20033;-61
2024/02/29 07:33:06;;;;;;;21.83;13.90;;;7.10;99.90;;;;;;5129002;27;20045;-62
2024/02/29 07:35:33;;;;;;;23.27;14.57;;;7.10;99.90;;;;;;5126168;27;20618;-60
2024/02/29 07:37:59;;;;;;;20.98;14.13;;;7.10;99.90;;;;;;5129523;27;20035;-61
2024/02/29 07:40:25;;;;;;;22.95;13.98;;;7.10;99.90;;;;;;5124827;27;20509;-61
2024/02/29 07:42:51;;;;;;;20.65;14.45;;;7.10;99.90;;;;;;5126989;27;20544;-61
2024/02/29 07:45:17;;;;;;;21.50;13.82;;;7.20;99.90;;;;;;5125663;27;20046;-61
2024/02/29 07:47:43;;;;;;;22.67;15.18;;;7.20;99.90;;;;;;5127186;27;20059;-62
2024/02/29 07:50:09;;;;;;;23.88;14.43;;;7.20;99.90;;;;;;5128673;27;20552;-61
2024/02/29 07:52:38;;;;;;;21.13;14.32;;;7.20;99.90;;;;;;5129213;27;20151;-62
2024/02/29 07:55:10;;;;;;;;;;;7.20;99.90;;;;;;5130003;27;20054;-62
2024/02/29 07:57:36;;;;;;;27.35;14.95;;;7.20;99.90;;;;;;5126095;27;19919;-62
2024/02/29 08:00:03;;;;;;;23.98;14.18;;;7.30;99.90;;;;;;5127208;27;20127;-62
2024/02/29 08:02:29;;;;;;;24.40;13.18;;;7.30;99.90;;;;;;5124691;27;20685;-62
2024/02/29 08:04:55;;;;;;;22.08;13.80;;;7.30;99.90;;;;;;5126463;27;20031;-62
2024/02/29 08:07:21;;;;;;;23.77;13.93;;;7.50;99.90;;;;;;5126751;27;20126;-64
2024/02/29 08:09:46;;;;;;;24.02;13.77;;;7.30;99.90;;;;;;5127272;27;20366;-62
2024/02/29 08:12:12;;;;;;;26.10;14.57;;;7.40;99.90;;;;;;5127369;27;20066;-61
2024/02/29 08:14:38;;;;;;;22.48;14.27;;;7.40;99.90;;;;;;5126667;27;20067;-61
2024/02/29 08:17:04;;;;;;;24.35;14.57;;;7.40;99.90;;;;;;5129549;27;20047;-61
2024/02/29 08:19:29;;;;;;;21.05;13.40;;;7.40;99.90;;;;;;5129265;27;20075;-61
2024/02/29 08:21:56;;;;;;;19.55;13.23;;;7.50;99.90;;;;;;5125507;27;20079;-61
2024/02/29 08:24:22;;;;;;;19.52;13.15;;;7.50;99.90;;;;;;5127439;27;20283;-62
2024/02/29 08:26:48;;;;;;;18.58;12.15;;;7.50;99.90;;;;;;5128728;27;20526;-61
2024/02/29 08:29:16;;;;;;;21.67;12.32;;;7.50;99.90;;;;;;5131550;27;20028;-61
2024/02/29 08:31:43;;;;;;;23.02;13.57;;;7.60;99.90;;;;;;5130905;27;20117;-61
2024/02/29 08:34:09;;;;;;;24.10;12.63;;;7.60;99.90;;;;;;5131440;27;20387;-61
2024/02/29 08:36:35;;;;;;;25.08;14.13;;;7.60;99.90;;;;;;5132572;27;20533;-61
2024/02/29 08:39:01;;;;;;;20.67;13.65;;;7.60;99.90;;;;;;5131224;27;20043;-62
2024/02/29 08:41:27;;;;;;;18.85;13.32;;;7.60;99.90;;;;;;5132805;27;20110;-62
2024/02/29 08:43:53;;;;;;;18.40;12.75;;;7.70;99.90;;;;;;5131004;27;20054;-62
2024/02/29 08:46:19;;;;;;;19.00;12.65;;;7.60;99.90;;;;;;5131072;27;20031;-61
2024/02/29 08:48:45;;;;;;;22.73;13.27;;;7.70;99.90;;;;;;5130456;27;20051;-62
2024/02/29 08:51:12;;;;;;;24.70;14.32;;;7.80;99.90;;;;;;5134109;27;20050;-62
2024/02/29 08:53:37;;;;;;;21.98;13.85;;;7.70;99.90;;;;;;5132634;27;20070;-61
2024/02/29 08:56:03;;;;;;;21.33;13.23;;;7.80;99.90;;;;;;5129139;27;20158;-61
2024/02/29 08:58:29;;;;;;;20.55;13.93;;;7.70;99.90;;;;;;5128375;27;20613;-61
2024/02/29 09:00:55;;;;;;;20.80;12.95;;;7.70;99.90;;;;;;5130216;27;20039;-62
2024/02/29 09:03:21;;;;;;;23.45;13.88;;;7.80;99.90;;;;;;5129826;27;20441;-62
2024/02/29 09:05:47;;;;;;;21.52;12.93;;;7.80;99.90;;;;;;5131664;27;20670;-61
2024/02/29 09:08:13;;;;;;;23.63;13.13;;;7.80;99.90;;;;;;5131464;27;20039;-61
2024/02/29 09:10:39;;;;;;;20.63;13.25;;;7.80;99.90;;;;;;5133525;27;20038;-61
2024/02/29 09:13:05;;;;;;;21.83;14.25;;;7.90;99.90;;;;;;5132649;27;20046;-62
2024/02/29 09:15:32;;;;;;;19.00;12.85;;;7.90;99.90;;;;;;5131180;27;20069;-62
2024/02/29 09:17:58;;;;;;;20.75;13.23;;;7.90;99.90;;;;;;5130565;27;20182;-62
2024/02/29 09:20:24;;;;;;;22.83;13.15;;;7.90;99.90;;;;;;5131501;27;20053;-62
2024/02/29 09:22:50;;;;;;;24.90;13.73;;;7.90;99.90;;;;;;5131998;27;20043;-62
2024/02/29 09:25:19;;;;;;;18.45;13.02;;;8.00;99.90;;;;;;5128051;27;20061;-62
2024/02/29 09:27:45;;;;;;;23.80;13.82;;;7.90;99.90;;;;;;5130270;27;20049;-62
2024/02/29 09:30:12;;;;;;;24.15;14.35;;;7.90;99.90;;;;;;5129861;27;20035;-62
2024/02/29 09:32:38;;;;;;;23.50;14.65;;;8.00;99.90;;;;;;5130758;27;20035;-62
2024/02/29 09:35:04;;;;;;;27.00;13.70;;;7.90;99.90;;;;;;5130563;27;20039;-63
2024/02/29 09:37:30;;;;;;;25.63;13.77;;;7.90;99.90;;;;;;5129000;27;20356;-62
2024/02/29 09:39:56;;;;;;;25.23;14.20;;;7.90;99.90;;;;;;5128355;27;20047;-62
2024/02/29 09:42:26;;;;;;;26.90;13.73;;;8.00;99.90;;;;;;5130464;27;20099;-62
2024/02/29 09:44:52;;;;;;;24.27;13.40;;;7.90;99.90;;;;;;5133192;27;20042;-62
2024/02/29 09:47:20;;;;;;;20.40;13.45;;;8.00;99.90;;;;;;5128508;27;20083;-62
2024/02/29 09:49:47;;;;;;;24.20;13.88;;;8.00;99.90;;;;;;5132216;27;20035;-62
2024/02/29 09:52:13;;;;;;;20.38;13.30;;;7.90;99.90;;;;;;5130458;27;20046;-62
2024/02/29 09:54:40;;;;;;;22.17;14.38;;;8.00;99.90;;;;;;5130713;27;20039;-62
2024/02/29 09:57:10;;;;;;;22.90;13.23;;;8.00;99.90;;;;;;5131769;27;20035;-62
2024/02/29 09:59:38;;;;;;;21.90;14.07;;;7.90;99.90;;;;;;5129652;27;20511;-63
2024/02/29 10:02:05;;;;;;;23.67;13.95;;;8.00;99.90;;;;;;5131251;27;20134;-62
2024/02/29 10:04:32;;;;;;;22.02;14.45;;;7.90;99.90;;;;;;5129587;27;20822;-62
2024/02/29 10:06:58;;;;;;;22.80;15.00;;;7.90;99.90;;;;;;5128252;27;20968;-62
2024/02/29 10:09:30;;;;;;;22.73;14.07;;;8.00;99.90;;;;;;5129035;27;20073;-62
2024/02/29 10:11:56;;;;;;;22.23;14.85;;;8.00;99.90;;;;;;5125839;27;20617;-62
2024/02/29 10:14:26;;;;;;;21.38;13.48;;;8.00;99.90;;;;;;5118505;27;20169;-63
2024/02/29 10:16:53;;;;;;;25.00;13.13;;;8.00;99.90;;;;;;5123588;27;20528;-63
2024/02/29 10:19:22;;;;;;;19.77;13.13;;;8.00;99.90;;;;;;5127147;27;20046;-63
2024/02/29 10:21:49;;;;;;;21.35;13.35;;;8.00;99.90;;;;;;5131181;27;20046;-62
2024/02/29 10:24:18;;;;;;;20.10;12.82;;;8.00;99.90;;;;;;5131212;27;20102;-63
2024/02/29 10:26:44;;;;;;;20.08;12.48;;;8.00;99.90;;;;;;5131485;27;20035;-62
2024/02/29 10:29:10;;;;;;;27.17;13.43;;;8.00;99.90;;;;;;5132937;27;20035;-63
2024/02/29 10:31:36;;;;;;;18.58;11.55;;;8.00;99.90;;;;;;5128578;27;20497;-62
2024/02/29 10:34:03;;;;;;;19.60;12.77;;;8.00;99.90;;;;;;5130880;27;20260;-62
2024/02/29 10:36:31;;;;;;;22.38;12.85;;;8.00;99.90;;;;;;5129709;27;20109;-62
2024/02/29 10:38:58;;;;;;;18.58;11.80;;;8.10;99.90;;;;;;5126859;27;20046;-63
2024/02/29 10:41:26;;;;;;;18.58;11.77;;;8.10;99.90;;;;;;5125443;27;20062;-63
2024/02/29 10:43:54;;;;;;;19.25;11.27;;;8.00;99.90;;;;;;5123218;27;20516;-62
2024/02/29 10:46:24;;;;;;;21.70;13.60;;;8.10;99.90;;;;;;5124473;27;20035;-63
2024/02/29 10:49:01;;;;;;;20.55;12.75;;;8.10;99.90;;;;;;5126389;27;20824;-64
2024/02/29 10:51:32;;;;;;;20.77;13.27;;;8.20;99.90;;;;;;5122702;27;20034;-63
2024/02/29 10:54:19;;;;;;;18.58;12.20;;;8.10;99.90;;;;;;5124828;27;20039;-61
2024/02/29 10:56:49;;;;;;;17.83;11.75;;;8.10;99.90;;;;;;5125706;27;20102;-61
2024/02/29 10:59:19;;;;;;;22.73;12.70;;;8.10;99.90;;;;;;5129604;27;20092;-61
2024/02/29 11:01:46;;;;;;;15.88;11.77;;;8.20;99.90;;;;;;5124694;27;20428;-62
2024/02/29 11:04:14;;;;;;;20.98;12.13;;;8.10;99.90;;;;;;5128852;27;20039;-62
2024/02/29 11:06:47;;;;;;;21.88;12.18;;;8.20;99.90;;;;;;5124631;27;20035;-61
2024/02/29 11:09:18;;;;;;;19.35;12.48;;;8.20;99.90;;;;;;5130874;27;20062;-62
2024/02/29 11:11:45;;;;;;;18.63;12.65;;;8.30;99.90;;;;;;5140266;27;20050;-62
2024/02/29 11:14:12;;;;;;;18.92;12.45;;;8.20;99.90;;;;;;5130699;27;20035;-61
2024/02/29 11:16:43;;;;;;;20.27;11.48;;;8.20;99.90;;;;;;5127617;27;20039;-62
2024/02/29 11:19:13;;;;;;;22.17;12.40;;;8.30;99.90;;;;;;5130680;27;20065;-63
2024/02/29 11:21:39;;;;;;;19.52;12.63;;;8.20;99.90;;;;;;5126435;27;20039;-63
2024/02/29 11:24:07;;;;;;;21.63;12.80;;;8.20;99.90;;;;;;5130776;27;20075;-63
2024/02/29 11:26:34;;;;;;;21.30;12.52;;;8.20;99.90;;;;;;5129499;27;20030;-61
2024/02/29 11:29:13;;;;;;;21.85;11.95;;;8.30;99.90;;;;;;5126972;27;20280;-62
2024/02/29 11:31:44;;;;;;;20.70;12.13;;;8.20;99.90;;;;;;5127567;27;20043;-62
2024/02/29 11:34:10;;;;;;;17.75;11.80;;;8.30;99.90;;;;;;5127432;27;20351;-62
2024/02/29 11:36:36;;;;;;;20.00;12.50;;;8.30;99.90;;;;;;5129573;27;20406;-62
2024/02/29 11:39:03;;;;;;;18.70;13.00;;;8.30;99.90;;;;;;5126975;27;20054;-62
2024/02/29 11:41:30;;;;;;;17.00;12.35;;;8.30;99.90;;;;;;5125941;27;20047;-63
2024/02/29 11:43:56;;;;;;;21.88;13.18;;;8.30;99.90;;;;;;5125386;27;20081;-62
2024/02/29 11:46:22;;;;;;;23.05;13.23;;;8.40;99.90;;;;;;5125421;27;20122;-63
2024/02/29 11:48:52;;;;;;;20.10;12.52;;;8.40;99.90;;;;;;5128184;27;20034;-62
2024/02/29 11:51:17;;;;;;;19.13;12.50;;;8.40;99.90;;;;;;5128283;27;20100;-62
2024/02/29 11:53:43;;;;;;;18.55;12.52;;;8.30;99.90;;;;;;5127428;27;20034;-63
2024/02/29 11:56:09;;;;;;;20.92;13.65;;;8.30;99.90;;;;;;5127923;27;20073;-62
2024/02/29 11:58:36;;;;;;;20.85;13.02;;;8.40;99.90;;;;;;5129467;27;20030;-62
2024/02/29 12:01:02;;;;;;;21.77;14.07;;;8.40;99.90;;;;;;5126500;27;20477;-61
2024/02/29 12:03:29;;;;;;;24.50;13.35;;;8.40;99.90;;;;;;5128278;27;20152;-62
2024/02/29 12:05:58;;;;;;;21.52;13.25;;;8.50;99.90;;;;;;5128204;27;20058;-63
2024/02/29 12:08:26;;;;;;;21.63;14.43;;;8.40;99.90;;;;;;5126664;27;20597;-61
2024/02/29 12:10:58;;;;;;;25.65;14.30;;;8.40;99.90;;;;;;5126995;27;20123;-63
2024/02/29 12:13:25;;;;;;;22.02;15.00;;;8.40;99.90;;;;;;5126838;27;20193;-63
2024/02/29 12:15:52;;;;;;;24.27;14.98;;;8.50;99.90;;;;;;5127524;27;20501;-62
2024/02/29 12:18:19;;;;;;;23.23;14.13;;;8.50;99.90;;;;;;5127440;27;20038;-61
2024/02/29 12:20:45;;;;;;;26.13;15.40;;;8.60;99.90;;;;;;5125781;27;20034;-63
2024/02/29 12:23:14;;;;;;;25.85;16.13;;;8.60;99.90;;;;;;5126619;27;20043;-63
2024/02/29 12:25:42;;;;;;;27.85;15.43;;;8.60;99.90;;;;;;5124565;27;20034;-61
2024/02/29 12:28:12;;;;;;;28.60;16.15;;;8.50;99.90;;;;;;5129016;27;20208;-63
2024/02/29 12:30:38;;;;;;;25.10;15.68;;;8.60;99.90;;;;;;5125351;27;20515;-63
2024/02/29 12:33:12;;;;;;;32.00;15.80;;;8.50;99.90;;;;;;5129757;27;20457;-63
2024/02/29 12:35:38;;;;;;;27.00;16.45;;;8.50;99.90;;;;;;5126528;27;20539;-61